Time;durP1;ratioP1;P1;durP2;ratioP2;P2;SDS_P1;SDS_P2;PMS_P1;PMS_P2;Temp;Humidity;BMP_temperature;BMP_pressure;BME280_temperature;BME280_humidity;BME280_pressure;Samples;Min_cycle;Max_cycle;Signal;HPM_P1;HPM_P2
2021/04/04 00:00:09;;;;;;;5.28;2.80;;;;;;;4.70;53.98;101305.50;5005892;28;20076;-65
2021/04/04 00:02:35;;;;;;;6.65;2.97;;;;;;;4.68;54.17;101302.97;5008105;28;20095;-65
2021/04/04 00:05:00;;;;;;;5.32;2.72;;;;;;;4.67;53.97;101306.53;5007896;28;20038;-65
2021/04/04 00:07:25;;;;;;;6.32;2.70;;;;;;;4.70;53.17;101305.50;5009047;28;20045;-65
2021/04/04 00:09:51;;;;;;;4.88;2.70;;;;;;;4.74;53.12;101299.13;5007318;28;20036;-65
2021/04/04 00:12:16;;;;;;;3.30;2.13;;;;;;;4.72;54.42;101293.16;5002623;28;20046;-65
2021/04/04 00:14:42;;;;;;;5.15;2.60;;;;;;;4.72;53.92;101308.00;4997398;28;20064;-64
2021/04/04 00:17:08;;;;;;;3.85;2.20;;;;;;;4.65;57.52;101294.47;4993475;28;20037;-65
2021/04/04 00:19:35;;;;;;;8.32;2.85;;;;;;;4.72;54.02;101295.78;4994524;28;20041;-65
2021/04/04 00:22:01;;;;;;;6.78;3.00;;;;;;;4.71;53.97;101299.31;5010121;28;20033;-65
2021/04/04 00:24:28;;;;;;;7.57;3.42;;;;;;;4.73;54.23;101296.63;4989681;28;20499;-65
2021/04/04 00:26:54;;;;;;;7.22;2.88;;;;;;;4.57;55.03;101292.31;5005812;28;20045;-65
2021/04/04 00:29:21;;;;;;;7.65;2.50;;;;;;;4.54;54.36;101291.66;4994099;28;20398;-64
2021/04/04 00:31:50;;;;;;;5.88;3.00;;;;;;;4.59;53.81;101290.44;5010877;28;20116;-65
2021/04/04 00:34:15;;;;;;;7.15;3.03;;;;;;;4.62;53.61;101284.16;4986238;28;20045;-65
2021/04/04 00:36:42;;;;;;;7.38;2.85;;;;;;;4.68;53.21;101287.25;5012184;28;20046;-64
2021/04/04 00:39:11;;;;;;;7.63;3.38;;;;;;;4.73;53.00;101281.72;4993152;28;20046;-65
2021/04/04 00:41:38;;;;;;;7.28;2.90;;;;;;;4.70;53.45;101283.72;5001430;28;20498;-65
2021/04/04 00:44:04;;;;;;;6.32;3.17;;;;;;;4.80;52.80;101279.56;5009710;28;20160;-65
2021/04/04 00:46:30;;;;;;;7.43;2.97;;;;;;;4.79;52.76;101270.88;4994172;28;20045;-65
2021/04/04 00:48:57;;;;;;;9.73;3.22;;;;;;;4.72;53.29;101266.97;5006071;28;20112;-65
2021/04/04 00:51:23;;;;;;;5.03;2.78;;;;;;;4.50;54.55;101264.81;5011440;28;20457;-65
2021/04/04 00:53:50;;;;;;;6.13;2.97;;;;;;;4.38;54.73;101263.78;4999462;28;20030;-64
2021/04/04 00:56:17;;;;;;;6.95;2.85;;;;;;;4.28;55.65;101260.03;4973366;28;20038;-64
2021/04/04 00:58:44;;;;;;;7.38;2.90;;;;;;;4.29;54.92;101256.50;5002042;28;20030;-64
2021/04/04 01:01:11;;;;;;;15.35;3.03;;;;;;;4.36;54.42;101256.94;4993040;28;20117;-65
2021/04/04 01:03:38;;;;;;;4.45;2.53;;;;;;;4.32;54.94;101260.72;4991848;28;20029;-64
2021/04/04 01:06:07;;;;;;;6.50;3.13;;;;;;;4.46;54.34;101256.31;5003548;28;20038;-64
2021/04/04 01:08:35;;;;;;;6.28;2.85;;;;;;;4.38;54.88;101260.31;4993904;28;20135;-65
2021/04/04 01:11:06;;;;;;;4.63;2.50;;;;;;;4.36;54.95;101257.81;4993266;28;20045;-65
2021/04/04 01:13:44;;;;;;;7.57;3.25;;;;;;;4.31;55.08;101254.63;5004182;28;20030;-64
2021/04/04 01:16:19;;;;;;;8.20;3.28;;;;;;;4.28;55.43;101254.81;5010256;28;20306;-64
2021/04/04 01:19:07;;;;;;;7.25;3.50;;;;;;;4.24;55.33;101254.16;5011950;28;20398;-64
2021/04/04 01:21:46;;;;;;;8.18;3.17;;;;;;;4.25;55.16;101255.84;4993508;28;20034;-64
2021/04/04 01:24:41;;;;;;;6.38;3.00;;;;;;;4.31;55.45;101256.41;4993329;28;20034;-65
2021/04/04 01:27:29;;;;;;;7.68;2.92;;;;;;;4.25;55.21;101255.84;5008767;28;20141;-64
2021/04/04 01:29:56;;;;;;;8.18;2.95;;;;;;;4.23;55.40;101249.84;4992673;28;20152;-65
2021/04/04 01:32:22;;;;;;;10.48;3.38;;;;;;;4.32;55.71;101258.94;4976301;28;20050;-65
2021/04/04 01:34:50;;;;;;;6.40;2.97;;;;;;;4.33;55.19;101251.91;4994228;28;20034;-65
2021/04/04 01:37:17;;;;;;;5.50;3.20;;;;;;;4.31;55.60;101256.41;5010659;28;20042;-65
2021/04/04 01:39:51;;;;;;;7.45;3.03;;;;;;;4.32;55.44;101242.38;4976851;28;20497;-65
2021/04/04 01:42:19;;;;;;;6.55;3.15;;;;;;;4.35;55.17;101240.41;4985211;28;20045;-65
2021/04/04 01:44:47;;;;;;;7.55;3.40;;;;;;;4.30;55.85;101231.16;4992219;28;20034;-65
2021/04/04 01:47:15;;;;;;;7.00;3.67;;;;;;;4.21;56.31;101229.94;4992293;28;20030;-64
2021/04/04 01:49:44;;;;;;;5.65;2.90;;;;;;;4.20;55.94;101234.34;5010800;28;20080;-64
2021/04/04 01:52:12;;;;;;;5.20;2.88;;;;;;;4.17;56.59;101236.28;4992554;28;20030;-64
2021/04/04 01:54:38;;;;;;;8.43;3.88;;;;;;;4.16;56.19;101239.84;4993195;28;20033;-64
2021/04/04 01:57:05;;;;;;;6.40;3.35;;;;;;;4.05;56.49;101235.25;5010249;28;20034;-64
2021/04/04 01:59:32;;;;;;;7.07;3.65;;;;;;;4.08;56.58;101236.88;4993025;28;20038;-65
2021/04/04 02:01:59;;;;;;;6.07;3.08;;;;;;;3.98;57.29;101232.19;4989786;28;20030;-64
2021/04/04 02:04:25;;;;;;;6.05;3.10;;;;;;;3.90;57.93;101237.00;4992108;28;20098;-65
2021/04/04 02:06:51;;;;;;;6.45;2.70;;;;;;;3.90;57.37;101244.03;5009965;28;20040;-65
2021/04/04 02:09:17;;;;;;;4.10;2.20;;;;;;;3.86;58.13;101237.28;4992647;28;20034;-65
2021/04/04 02:11:44;;;;;;;3.78;2.13;;;;;;;3.90;58.02;101239.63;5010377;28;20116;-65
2021/04/04 02:14:12;;;;;;;6.70;2.33;;;;;;;3.89;57.68;101243.19;5008159;28;20498;-66
2021/04/04 02:16:43;;;;;;;6.35;3.63;;;;;;;3.73;58.42;101238.00;5009433;28;20040;-65
2021/04/04 02:19:10;;;;;;;6.30;2.85;;;;;;;3.73;57.79;101242.41;5010479;28;20041;-65
2021/04/04 02:21:37;;;;;;;7.82;3.55;;;;;;;3.60;58.71;101243.13;5010084;28;20096;-65
2021/04/04 02:24:04;;;;;;;6.35;3.70;;;;;;;3.47;59.28;101246.53;5008838;28;20068;-65
2021/04/04 02:26:31;;;;;;;7.13;3.42;;;;;;;3.30;61.01;101247.50;5009893;28;20108;-64
2021/04/04 02:28:57;;;;;;;8.20;3.92;;;;;;;3.31;58.89;101251.78;5009590;28;20026;-64
2021/04/04 02:31:24;;;;;;;6.15;3.72;;;;;;;3.23;59.18;101244.41;5009326;28;20046;-64
2021/04/04 02:33:57;;;;;;;10.57;4.55;;;;;;;3.16;59.48;101243.88;5003116;28;20290;-64
2021/04/04 02:36:26;;;;;;;6.88;3.00;;;;;;;3.07;60.19;101243.56;5009021;28;20045;-65
2021/04/04 02:38:57;;;;;;;5.97;3.38;;;;;;;3.03;62.38;101242.91;5009060;28;20052;-65
2021/04/04 02:41:23;;;;;;;5.30;2.83;;;;;;;3.04;63.64;101244.59;5008491;28;20041;-64
2021/04/04 02:43:51;;;;;;;6.53;3.45;;;;;;;3.12;60.68;101250.25;5008190;28;20236;-64
2021/04/04 02:46:20;;;;;;;8.63;3.50;;;;;;;3.15;60.41;101242.22;4989261;28;20030;-65
2021/04/04 02:49:05;;;;;;;9.27;3.90;;;;;;;3.19;60.00;101242.88;5006003;28;20034;-65
2021/04/04 02:51:41;;;;;;;4.72;2.60;;;;;;;3.15;62.65;101242.22;5009475;28;20045;-64
2021/04/04 02:54:08;;;;;;;4.63;2.65;;;;;;;3.20;59.91;101241.97;5008417;28;20494;-64
2021/04/04 02:56:40;;;;;;;5.63;2.47;;;;;;;3.18;61.06;101236.81;5008992;28;20441;-64
2021/04/04 02:59:13;;;;;;;5.45;2.50;;;;;;;3.15;62.50;101242.22;5009513;28;20037;-64
2021/04/04 03:01:40;;;;;;;6.63;3.10;;;;;;;3.07;61.33;101238.34;5005160;28;20058;-64
2021/04/04 03:04:07;;;;;;;8.52;3.33;;;;;;;2.97;62.55;101249.31;5008420;28;20109;-64
2021/04/04 03:06:39;;;;;;;7.30;3.00;;;;;;;2.82;62.50;101252.78;5008718;28;20034;-65
2021/04/04 03:09:04;;;;;;;7.57;3.38;;;;;;;2.96;61.10;101255.47;5009512;28;20060;-64
2021/04/04 03:11:30;;;;;;;8.40;3.03;;;;;;;3.01;61.20;101257.00;5008833;28;20034;-64
2021/04/04 03:13:57;;;;;;;9.13;3.40;;;;;;;2.89;64.34;101259.34;5002630;28;20099;-64
2021/04/04 03:16:23;;;;;;;5.45;2.65;;;;;;;2.95;65.58;101255.53;5008542;28;20458;-64
2021/04/04 03:18:51;;;;;;;7.18;2.92;;;;;;;2.96;64.95;101257.25;5008247;28;20041;-64
2021/04/04 03:21:17;;;;;;;5.18;2.95;;;;;;;2.87;63.70;101261.19;5009136;28;20022;-64
2021/04/04 03:23:44;;;;;;;5.75;2.33;;;;;;;2.91;63.00;101261.88;5008753;28;20042;-64
2021/04/04 03:26:11;;;;;;;5.25;2.38;;;;;;;2.86;64.53;101267.34;5007680;28;20052;-64
2021/04/04 03:28:38;;;;;;;5.47;2.42;;;;;;;2.91;65.81;101262.72;5009126;28;20038;-65
2021/04/04 03:31:04;;;;;;;5.43;2.72;;;;;;;2.92;66.02;101253.09;5008583;28;20048;-64
2021/04/04 03:33:30;;;;;;;6.78;3.47;;;;;;;2.88;63.77;101257.63;4990873;28;20038;-64
2021/04/04 03:35:57;;;;;;;5.30;2.47;;;;;;;2.83;65.40;101256.22;5009093;28;20042;-63
2021/04/04 03:38:24;;;;;;;4.85;2.35;;;;;;;2.73;65.43;101255.88;5007815;28;20136;-64
2021/04/04 03:40:51;;;;;;;6.50;3.38;;;;;;;2.55;65.92;101248.13;5009166;28;20034;-64
2021/04/04 03:43:22;;;;;;;5.55;3.10;;;;;;;2.39;65.94;101249.03;5008974;28;20446;-64
2021/04/04 03:45:51;;;;;;;6.32;2.97;;;;;;;2.30;65.86;101258.16;5007903;28;20121;-64
2021/04/04 03:48:19;;;;;;;6.15;2.95;;;;;;;2.36;65.12;101249.16;5005424;28;20037;-64
2021/04/04 03:50:46;;;;;;;4.07;2.47;;;;;;;2.39;67.60;101249.03;5011743;28;20029;-65
2021/04/04 03:53:13;;;;;;;6.25;3.70;;;;;;;2.36;68.23;101257.00;5011790;28;20053;-64
2021/04/04 03:55:42;;;;;;;6.50;2.90;;;;;;;2.30;66.92;101245.97;5011208;28;20407;-64
2021/04/04 03:58:07;;;;;;;6.05;3.67;;;;;;;2.27;67.45;101251.34;5012206;28;20053;-65
2021/04/04 04:00:36;;;;;;;5.50;3.00;;;;;;;2.18;65.73;101248.38;5012813;28;20034;-65
2021/04/04 04:03:03;;;;;;;6.03;3.10;;;;;;;2.16;69.71;101256.28;5011532;28;20034;-64
2021/04/04 04:05:30;;;;;;;4.97;2.60;;;;;;;2.17;65.71;101251.91;5012108;28;20053;-64
2021/04/04 04:07:56;;;;;;;5.22;2.47;;;;;;;2.14;66.59;101247.69;5012313;28;20380;-64
2021/04/04 04:10:22;;;;;;;6.22;2.80;;;;;;;2.19;68.00;101248.28;5012119;28;20041;-65
2021/04/04 04:12:49;;;;;;;4.15;2.63;;;;;;;2.17;69.22;101246.69;5005011;28;20069;-65
2021/04/04 04:15:16;;;;;;;8.38;2.70;;;;;;;2.09;66.88;101240.09;5009707;28;20527;-64
2021/04/04 04:17:45;;;;;;;5.05;2.78;;;;;;;2.06;67.92;101244.66;5008295;28;20045;-64
2021/04/04 04:20:12;;;;;;;5.32;3.20;;;;;;;1.95;67.80;101242.56;5011863;28;20402;-65
2021/04/04 04:22:38;;;;;;;5.57;2.83;;;;;;;1.86;68.03;101243.03;5011978;28;20513;-64
2021/04/04 04:25:04;;;;;;;5.65;2.50;;;;;;;1.77;70.11;101249.59;5011980;28;20096;-64
2021/04/04 04:27:31;;;;;;;5.55;2.90;;;;;;;1.74;68.43;101244.53;5012710;28;20042;-64
2021/04/04 04:29:59;;;;;;;9.00;3.60;;;;;;;1.68;67.90;101242.22;5012299;28;20527;-64
2021/04/04 04:32:26;;;;;;;5.93;3.47;;;;;;;1.68;68.36;101239.63;5011739;28;20204;-64
2021/04/04 04:34:54;;;;;;;5.78;3.05;;;;;;;1.58;68.26;101246.22;4996417;28;20027;-64
2021/04/04 04:37:20;;;;;;;6.28;3.35;;;;;;;1.52;67.24;101244.72;5010445;28;20089;-64
2021/04/04 04:39:47;;;;;;;5.82;2.97;;;;;;;1.59;71.87;101233.09;5011717;28;20034;-64
2021/04/04 04:42:13;;;;;;;5.88;3.30;;;;;;;1.59;69.73;101235.69;5012088;28;20387;-64
2021/04/04 04:44:49;;;;;;;6.40;3.30;;;;;;;1.63;69.55;101229.41;5011820;28;20038;-64
2021/04/04 04:47:15;;;;;;;6.57;3.47;;;;;;;1.59;69.28;101234.84;5010735;28;20029;-64
2021/04/04 04:49:44;;;;;;;6.72;3.15;;;;;;;1.53;71.71;101243.00;5012141;28;20491;-64
2021/04/04 04:52:11;;;;;;;8.82;3.63;;;;;;;1.54;69.11;101231.63;5010846;28;20204;-65
2021/04/04 04:54:40;;;;;;;7.22;3.10;;;;;;;1.50;69.05;101236.16;5011753;28;20041;-64
2021/04/04 04:57:08;;;;;;;8.27;3.17;;;;;;;1.44;69.46;101239.91;5011844;28;20426;-64
2021/04/04 04:59:34;;;;;;;7.00;3.60;;;;;;;1.38;68.63;101242.84;5011782;28;20038;-64
2021/04/04 05:02:00;;;;;;;7.75;3.40;;;;;;;1.31;70.24;101238.84;5011402;28;20497;-64
2021/04/04 05:04:27;;;;;;;6.78;3.35;;;;;;;1.31;69.15;101240.56;4993345;28;20046;-64
2021/04/04 05:06:53;;;;;;;5.45;3.22;;;;;;;1.33;70.49;101247.41;5011046;28;20030;-64
2021/04/04 05:09:20;;;;;;;7.03;3.20;;;;;;;1.45;72.55;101249.44;5011280;28;20026;-64
2021/04/04 05:11:47;;;;;;;7.40;3.40;;;;;;;1.52;71.53;101244.72;5011448;28;20033;-64
2021/04/04 05:14:14;;;;;;;5.97;3.55;;;;;;;1.61;70.46;101254.72;5007992;28;20037;-65
2021/04/04 05:16:40;;;;;;;6.03;3.88;;;;;;;1.61;70.85;101254.72;5010891;28;20041;-65
2021/04/04 05:19:10;;;;;;;6.70;3.20;;;;;;;1.66;69.22;101249.28;5011003;28;20038;-64
2021/04/04 05:21:38;;;;;;;5.95;3.40;;;;;;;1.77;67.32;101244.38;5006221;28;20038;-64
2021/04/04 05:24:10;;;;;;;4.53;2.60;;;;;;;1.76;69.30;101244.44;5010938;28;20033;-65
2021/04/04 05:26:41;;;;;;;8.55;3.60;;;;;;;1.74;69.84;101241.94;5011183;28;20061;-64
2021/04/04 05:29:07;;;;;;;;;;;;;;;1.70;69.43;101245.59;5012222;28;20045;-64
2021/04/04 05:31:33;;;;;;;7.10;4.00;;;;;;;1.65;69.14;101245.81;5010964;28;20023;-64
2021/04/04 05:34:00;;;;;;;5.57;3.25;;;;;;;1.69;71.21;101249.97;5003901;28;20054;-64
2021/04/04 05:36:25;;;;;;;7.57;3.55;;;;;;;1.80;69.75;101249.41;5002490;28;20042;-64
2021/04/04 05:38:56;;;;;;;5.07;2.83;;;;;;;1.89;70.14;101233.31;5011031;28;20034;-64
2021/04/04 05:41:23;;;;;;;5.32;2.95;;;;;;;2.07;69.03;101247.19;5010723;28;20109;-65
2021/04/04 05:43:55;;;;;;;7.38;4.22;;;;;;;2.04;69.14;101242.09;5011550;28;20057;-65
2021/04/04 05:46:27;;;;;;;6.45;3.15;;;;;;;2.08;68.71;101251.47;5007401;28;20611;-64
2021/04/04 05:49:14;;;;;;;5.97;3.10;;;;;;;2.18;69.10;101249.22;5008561;28;20129;-64
2021/04/04 05:51:45;;;;;;;8.02;2.90;;;;;;;2.32;67.30;101257.16;5011760;28;20034;-64
2021/04/04 05:54:36;;;;;;;6.68;3.28;;;;;;;2.43;67.57;101259.22;5010504;28;20037;-64
2021/04/04 05:57:17;;;;;;;5.25;2.92;;;;;;;2.96;66.55;101257.25;5010373;28;20049;-64
2021/04/04 05:59:50;;;;;;;7.00;2.88;;;;;;;3.65;63.85;101260.31;5010635;28;20034;-65
2021/04/04 06:02:48;;;;;;;7.05;3.20;;;;;;;4.22;62.26;101258.66;5007795;28;20030;-65
2021/04/04 06:05:51;;;;;;;8.23;3.50;;;;;;;4.61;60.68;101258.91;4963686;28;20040;-65
2021/04/04 06:08:37;;;;;;;5.90;3.13;;;;;;;4.90;59.18;101271.03;5009515;28;20166;-65
2021/04/04 06:11:39;;;;;;;6.28;2.42;;;;;;;5.62;61.18;101267.31;4992158;28;20030;-65
2021/04/04 06:14:38;;;;;;;7.38;3.30;;;;;;;6.10;56.19;101272.84;5002566;28;20076;-67
2021/04/04 06:17:18;;;;;;;7.63;3.40;;;;;;;6.59;58.56;101275.56;4991692;28;20030;-65
2021/04/04 06:20:03;;;;;;;10.77;4.60;;;;;;;7.11;57.13;101283.34;5009791;28;20506;-65
2021/04/04 06:22:50;;;;;;;7.22;4.57;;;;;;;7.55;52.51;101281.88;5003969;28;20402;-65
2021/04/04 06:25:34;;;;;;;9.35;4.57;;;;;;;7.78;55.15;101273.09;4989948;28;20046;-65
2021/04/04 06:28:08;;;;;;;7.60;2.90;;;;;;;8.42;51.23;101277.91;5009958;28;20145;-65
2021/04/04 06:30:50;;;;;;;4.10;2.40;;;;;;;8.89;54.96;101281.25;5010399;28;20122;-66
2021/04/04 06:33:22;;;;;;;6.45;2.42;;;;;;;9.27;51.81;101281.75;5003718;28;20044;-66
2021/04/04 06:36:03;;;;;;;4.22;2.80;;;;;;;9.56;46.42;101288.13;4992584;28;20033;-66
2021/04/04 06:38:38;;;;;;;5.57;2.60;;;;;;;9.92;44.86;101290.47;4996418;28;20038;-66
2021/04/04 06:41:28;;;;;;;8.07;3.30;;;;;;;10.01;46.71;101284.44;5000610;28;20859;-65
2021/04/04 06:44:13;;;;;;;7.10;3.00;;;;;;;10.16;45.78;101277.00;5009652;28;20034;-65
2021/04/04 06:47:13;;;;;;;7.05;3.30;;;;;;;10.28;43.63;101278.63;5006544;28;20030;-65
2021/04/04 06:50:06;;;;;;;7.78;3.40;;;;;;;10.61;42.82;101282.81;5005546;28;20042;-66
2021/04/04 06:53:03;;;;;;;5.78;2.88;;;;;;;10.55;46.15;101280.69;5005766;28;20050;-65
2021/04/04 06:55:38;;;;;;;7.63;2.90;;;;;;;10.70;44.97;101285.59;5006533;28;20038;-66
2021/04/04 06:58:16;;;;;;;4.28;2.38;;;;;;;11.38;43.97;101278.66;5008898;28;20041;-65
2021/04/04 07:01:19;;;;;;;5.45;2.50;;;;;;;11.74;41.52;101284.22;5005998;28;20049;-66
2021/04/04 07:03:47;;;;;;;4.85;2.40;;;;;;;11.73;41.13;101284.34;5009166;28;20453;-66
2021/04/04 07:07:03;;;;;;;4.00;2.20;;;;;;;12.48;42.42;101277.38;5006973;28;20045;-66
2021/04/04 07:10:04;;;;;;;4.93;2.88;;;;;;;13.06;42.55;101285.06;4959832;28;20282;-66
2021/04/04 07:12:52;;;;;;;5.43;2.57;;;;;;;13.40;38.09;101286.28;5006983;28;20467;-66
2021/04/04 07:15:46;;;;;;;6.22;2.83;;;;;;;13.31;40.24;101293.31;4971706;28;20526;-66
2021/04/04 07:18:11;;;;;;;5.55;2.45;;;;;;;13.78;38.04;101283.28;5009079;28;20061;-66
2021/04/04 07:20:51;;;;;;;4.88;2.45;;;;;;;13.74;39.63;101289.06;5009314;28;20568;-66
2021/04/04 07:23:40;;;;;;;5.38;2.83;;;;;;;13.44;39.22;101282.31;5009247;28;20040;-66
2021/04/04 07:26:55;;;;;;;5.15;2.50;;;;;;;13.62;38.75;101288.44;5008135;28;20033;-66
2021/04/04 07:29:45;;;;;;;5.10;2.30;;;;;;;14.13;37.40;101284.16;4985082;28;20042;-66
2021/04/04 07:32:15;;;;;;;6.10;2.80;;;;;;;14.13;37.39;101283.34;5006144;28;20125;-66
2021/04/04 07:35:10;;;;;;;5.28;2.42;;;;;;;14.34;37.17;101281.13;5008221;28;20269;-66
2021/04/04 07:37:59;;;;;;;4.88;2.63;;;;;;;14.97;38.03;101282.63;5009408;28;20383;-66
2021/04/04 07:40:34;;;;;;;6.50;2.97;;;;;;;14.59;34.76;101279.47;5009173;28;20050;-66
2021/04/04 07:43:06;;;;;;;5.72;3.08;;;;;;;14.64;36.08;101281.66;5008933;28;20037;-67
2021/04/04 07:46:01;;;;;;;5.13;2.40;;;;;;;14.72;36.66;101286.19;5009321;28;20034;-66
2021/04/04 07:48:32;;;;;;;7.88;3.70;;;;;;;14.71;35.01;101273.88;5008905;28;20061;-66
2021/04/04 07:51:15;;;;;;;5.68;2.95;;;;;;;15.00;36.12;101274.28;5006947;28;20045;-66
2021/04/04 07:53:47;;;;;;;6.30;3.10;;;;;;;14.91;35.12;101272.59;5005138;28;20038;-66
2021/04/04 07:56:24;;;;;;;8.18;3.63;;;;;;;15.18;35.73;101279.53;5008284;28;20022;-66
2021/04/04 07:58:49;;;;;;;7.82;3.90;;;;;;;16.00;32.39;101265.41;5009271;28;20403;-67
2021/04/04 08:01:20;;;;;;;5.32;2.90;;;;;;;16.14;33.91;101270.88;5008656;28;20049;-67
2021/04/04 08:03:59;;;;;;;4.03;2.30;;;;;;;15.97;33.88;101260.38;5009013;28;21308;-65
2021/04/04 08:06:30;;;;;;;6.80;3.25;;;;;;;17.11;32.67;101269.81;5000950;28;20049;-64
2021/04/04 08:09:30;;;;;;;9.70;3.60;;;;;;;16.77;32.20;101266.47;5009304;28;20481;-66
2021/04/04 08:12:22;;;;;;;6.20;3.17;;;;;;;16.18;34.44;101268.69;4977007;28;20038;-65
2021/04/04 08:15:01;;;;;;;6.18;3.17;;;;;;;16.68;31.53;101274.69;4971347;28;20034;-65
2021/04/04 08:17:26;;;;;;;8.02;3.83;;;;;;;16.86;32.49;101277.16;5002529;28;20049;-65
2021/04/04 08:20:00;;;;;;;6.15;3.72;;;;;;;16.99;31.29;101274.75;5008836;28;20033;-65
2021/04/04 08:22:33;;;;;;;7.20;3.60;;;;;;;16.47;33.35;101269.94;5008135;28;20042;-64
2021/04/04 08:25:05;;;;;;;6.28;2.70;;;;;;;17.03;33.26;101270.72;5008033;28;20568;-65
2021/04/04 08:27:38;;;;;;;5.63;2.80;;;;;;;16.83;30.88;101270.34;4999642;28;20038;-65
2021/04/04 08:30:17;;;;;;;6.30;3.22;;;;;;;17.41;31.77;101279.66;5000300;28;20108;-65
2021/04/04 08:32:47;;;;;;;6.32;3.47;;;;;;;18.30;30.64;101270.19;5007983;28;20038;-65
2021/04/04 08:35:20;;;;;;;7.70;3.28;;;;;;;18.76;29.83;101276.19;5008310;28;20038;-65
2021/04/04 08:38:08;;;;;;;5.82;3.10;;;;;;;18.61;29.09;101275.34;5012015;28;20034;-65
2021/04/04 08:40:36;;;;;;;8.88;4.40;;;;;;;19.02;28.34;101264.09;5007325;28;20038;-66
2021/04/04 08:43:03;;;;;;;6.63;3.50;;;;;;;18.28;29.94;101258.81;5009792;28;20412;-65
2021/04/04 08:45:41;;;;;;;6.53;3.50;;;;;;;18.99;28.63;101259.13;5010666;28;21933;-66
2021/04/04 08:48:07;;;;;;;5.63;3.28;;;;;;;19.21;28.43;101258.16;5001150;28;20043;-66
2021/04/04 08:50:35;;;;;;;6.82;3.55;;;;;;;18.60;29.29;101258.44;4999350;28;20640;-67
2021/04/04 08:53:18;;;;;;;8.73;4.20;;;;;;;19.98;27.29;101255.75;5011690;28;20530;-66
2021/04/04 08:55:47;;;;;;;4.43;2.15;;;;;;;20.46;26.91;101255.81;5012085;28;20052;-64
2021/04/04 08:58:15;;;;;;;6.78;3.17;;;;;;;20.69;26.49;101255.50;5011145;28;20605;-65
2021/04/04 09:00:41;;;;;;;6.07;3.40;;;;;;;20.82;26.96;101247.50;5011660;28;20042;-65
2021/04/04 09:03:20;;;;;;;5.88;3.25;;;;;;;20.87;26.34;101253.09;5011661;28;20034;-67
2021/04/04 09:05:46;;;;;;;6.07;3.40;;;;;;;21.04;26.62;101256.25;5011616;28;20526;-65
2021/04/04 09:08:14;;;;;;;5.72;2.83;;;;;;;20.90;26.50;101252.69;5011275;28;20120;-65
2021/04/04 09:10:41;;;;;;;6.00;2.80;;;;;;;21.82;25.36;101258.44;5011865;28;20034;-66
2021/04/04 09:13:08;;;;;;;4.00;2.45;;;;;;;21.91;25.57;101256.38;5005269;28;20034;-64
2021/04/04 09:15:44;;;;;;;4.32;2.17;;;;;;;22.62;24.33;101248.31;5011464;28;20034;-65
2021/04/04 09:18:09;;;;;;;6.40;3.70;;;;;;;22.27;23.88;101253.22;5009823;28;20030;-65
2021/04/04 09:20:44;;;;;;;8.23;3.40;;;;;;;21.47;26.04;101260.50;5002181;28;20045;-65
2021/04/04 09:23:11;;;;;;;6.65;3.50;;;;;;;21.73;24.74;101238.13;5010676;28;20046;-65
2021/04/04 09:25:46;;;;;;;4.95;2.33;;;;;;;20.99;24.23;101239.91;5010740;28;20133;-64
2021/04/04 09:28:13;;;;;;;5.93;3.00;;;;;;;20.43;25.77;101237.41;5005093;28;20030;-67
2021/04/04 09:30:41;;;;;;;6.25;2.90;;;;;;;20.61;27.01;101235.03;5010865;28;20042;-64
2021/04/04 09:33:11;;;;;;;6.45;2.80;;;;;;;21.15;25.12;101244.09;5006992;28;20041;-64
2021/04/04 09:35:39;;;;;;;5.18;2.83;;;;;;;20.20;25.90;101238.50;5005251;28;20137;-65
2021/04/04 09:38:08;;;;;;;5.15;2.33;;;;;;;19.30;27.23;101229.34;5010953;28;20514;-65
2021/04/04 09:40:34;;;;;;;6.00;3.05;;;;;;;17.99;28.57;101231.84;5010151;28;20042;-65
2021/04/04 09:43:13;;;;;;;6.15;2.90;;;;;;;17.42;30.00;101224.31;5010287;28;20030;-65
2021/04/04 09:45:39;;;;;;;8.35;3.42;;;;;;;18.60;28.53;101223.63;5005630;28;20026;-65
2021/04/04 09:48:22;;;;;;;7.10;3.00;;;;;;;18.26;29.41;101229.56;4999895;28;20443;-65
2021/04/04 09:50:49;;;;;;;6.45;3.58;;;;;;;18.25;29.30;101228.72;4991783;28;20121;-65
2021/04/04 09:53:41;;;;;;;8.20;3.10;;;;;;;17.26;31.16;101222.63;4998686;28;20034;-65
2021/04/04 09:56:06;;;;;;;7.22;3.08;;;;;;;17.04;31.89;101218.09;5008508;28;20041;-66
2021/04/04 09:58:31;;;;;;;7.53;3.70;;;;;;;16.92;31.94;101218.53;5004430;28;20046;-65
2021/04/04 10:00:57;;;;;;;8.93;3.55;;;;;;;17.01;31.16;101218.47;4991617;28;20444;-64
2021/04/04 10:03:23;;;;;;;6.68;2.95;;;;;;;16.58;31.51;101213.50;5003707;28;20038;-65
2021/04/04 10:05:50;;;;;;;7.60;3.42;;;;;;;16.25;32.46;101210.94;4991742;28;20128;-65
2021/04/04 10:08:29;;;;;;;5.68;3.17;;;;;;;16.19;33.14;101206.31;5009826;28;20041;-65
2021/04/04 10:10:57;;;;;;;6.88;3.13;;;;;;;16.38;32.65;101204.25;5000236;28;20461;-67
2021/04/04 10:13:30;;;;;;;6.57;3.42;;;;;;;16.24;31.99;101195.13;5001484;28;20478;-67
2021/04/04 10:15:57;;;;;;;5.70;3.30;;;;;;;15.81;33.57;101190.06;5006997;28;20419;-67
2021/04/04 10:18:24;;;;;;;7.32;3.20;;;;;;;16.12;31.91;101192.81;5008511;28;20041;-65
2021/04/04 10:20:52;;;;;;;10.98;3.92;;;;;;;16.08;31.96;101190.66;5009716;28;20459;-65
2021/04/04 10:23:19;;;;;;;7.18;3.40;;;;;;;15.26;34.36;101185.44;5009277;28;20109;-67
2021/04/04 10:26:05;;;;;;;8.85;3.80;;;;;;;15.51;34.03;101173.75;5009596;28;20026;-64
2021/04/04 10:28:54;;;;;;;7.88;3.78;;;;;;;15.53;32.45;101172.75;5006072;28;20538;-67
2021/04/04 10:31:23;;;;;;;11.73;5.35;;;;;;;15.26;32.50;101172.13;5009032;28;20034;-66
2021/04/04 10:33:59;;;;;;;8.40;4.32;;;;;;;14.50;33.83;101173.94;5003256;28;20229;-67
2021/04/04 10:36:27;;;;;;;10.05;4.15;;;;;;;14.59;33.45;101173.03;5008974;28;20584;-66
2021/04/04 10:38:52;;;;;;;10.70;4.57;;;;;;;14.64;33.56;101169.88;5010056;28;20435;-66
2021/04/04 10:41:32;;;;;;;9.35;4.03;;;;;;;14.17;35.66;101167.69;5009887;28;20038;-66
2021/04/04 10:43:58;;;;;;;7.85;4.50;;;;;;;14.40;33.84;101168.78;4993014;28;20038;-67
2021/04/04 10:46:27;;;;;;;9.48;4.50;;;;;;;14.55;33.75;101166.34;5006581;28;20038;-66
2021/04/04 10:48:52;;;;;;;8.75;4.30;;;;;;;14.41;35.34;101164.28;5006892;28;20030;-67
2021/04/04 10:51:19;;;;;;;13.98;5.63;;;;;;;14.52;34.68;101164.00;5005062;28;20037;-66
2021/04/04 10:53:46;;;;;;;9.63;4.72;;;;;;;14.13;35.54;101164.47;5010027;28;20034;-66
2021/04/04 10:56:12;;;;;;;12.10;5.38;;;;;;;13.94;36.00;101162.06;5009531;28;20030;-66
2021/04/04 10:58:39;;;;;;;9.50;4.68;;;;;;;13.93;36.67;101160.41;5009569;28;20042;-66
2021/04/04 11:01:07;;;;;;;10.60;5.93;;;;;;;14.01;37.79;101157.78;5009342;28;20030;-66
2021/04/04 11:03:34;;;;;;;13.13;5.65;;;;;;;13.79;36.61;101167.97;5009229;28;20033;-66
2021/04/04 11:06:00;;;;;;;10.65;5.03;;;;;;;13.66;36.56;101169.38;5004025;28;20037;-67
2021/04/04 11:08:26;;;;;;;11.90;6.50;;;;;;;13.54;36.58;101160.84;5007438;28;20121;-67
2021/04/04 11:10:52;;;;;;;9.75;5.38;;;;;;;13.49;37.72;101157.81;5001386;28;20173;-66
2021/04/04 11:13:19;;;;;;;10.40;4.78;;;;;;;13.37;38.30;101160.72;5006042;28;20041;-67
2021/04/04 11:15:59;;;;;;;9.85;4.72;;;;;;;13.18;37.27;101155.56;5009376;28;20092;-66
2021/04/04 11:18:41;;;;;;;12.60;5.70;;;;;;;13.18;38.53;101151.09;5008539;28;20049;-66
2021/04/04 11:21:11;;;;;;;10.65;4.53;;;;;;;12.96;37.59;101148.88;5008837;28;20042;-66
2021/04/04 11:23:38;;;;;;;9.17;4.50;;;;;;;12.82;38.68;101150.25;5009384;28;20457;-67
2021/04/04 11:26:23;;;;;;;7.75;3.63;;;;;;;13.32;37.26;101141.78;5008359;28;20116;-66
2021/04/04 11:29:07;;;;;;;10.90;5.10;;;;;;;13.63;37.24;101143.13;5009063;28;20123;-66
2021/04/04 11:31:33;;;;;;;11.07;5.13;;;;;;;13.56;37.90;101137.59;5004089;28;20403;-67
2021/04/04 11:34:31;;;;;;;12.48;6.07;;;;;;;13.91;38.09;101136.63;5004260;28;20038;-67
2021/04/04 11:36:59;;;;;;;10.07;5.50;;;;;;;14.09;36.61;101128.59;5007483;28;20410;-66
2021/04/04 11:39:24;;;;;;;10.90;5.47;;;;;;;13.87;37.51;101131.78;5008271;28;20038;-66
2021/04/04 11:41:53;;;;;;;12.82;5.72;;;;;;;13.44;36.94;101130.88;4985288;28;20546;-66
2021/04/04 11:44:32;;;;;;;11.68;5.18;;;;;;;12.79;38.85;101118.69;5008522;28;20092;-66
2021/04/04 11:47:06;;;;;;;10.95;4.53;;;;;;;12.82;40.86;101112.25;5007839;28;20130;-67
2021/04/04 11:49:37;;;;;;;11.88;5.28;;;;;;;12.78;41.16;101114.41;5006463;28;20120;-66
2021/04/04 11:52:08;;;;;;;12.90;5.78;;;;;;;12.83;39.61;101114.75;5008983;28;20034;-66